createdAt,value
2022-10-28T00:00:49.658Z,14.50
2022-10-28T00:03:40.040Z,14.50
2022-10-28T00:06:30.045Z,14.60
2022-10-28T00:09:18.066Z,14.50
2022-10-28T00:12:07.579Z,14.60
2022-10-28T00:14:55.556Z,14.60
2022-10-28T00:17:43.527Z,14.50
2022-10-28T00:20:32.532Z,14.60
2022-10-28T00:23:20.513Z,14.60
2022-10-28T00:26:10.564Z,14.60
2022-10-28T00:29:01.694Z,14.60
2022-10-28T00:31:49.718Z,14.70
2022-10-28T00:34:38.650Z,14.80
2022-10-28T00:37:26.688Z,14.60
2022-10-28T00:40:14.710Z,14.70
2022-10-28T00:43:02.683Z,14.70
2022-10-28T00:45:52.189Z,14.70
2022-10-28T00:48:41.347Z,14.70
2022-10-28T00:51:31.401Z,14.70
2022-10-28T00:54:20.835Z,14.60
2022-10-28T00:57:12.741Z,14.60
2022-10-28T01:00:02.585Z,14.60
2022-10-28T01:02:52.362Z,14.60
2022-10-28T01:05:44.048Z,14.60
2022-10-28T01:08:32.692Z,14.60
2022-10-28T01:11:46.380Z,14.50
2022-10-28T01:14:49.486Z,14.50
2022-10-28T01:17:51.851Z,14.50
2022-10-28T01:21:13.236Z,14.50
2022-10-28T01:24:15.220Z,14.50
2022-10-28T01:27:45.387Z,14.50
2022-10-28T01:30:43.099Z,14.40
2022-10-28T01:33:39.477Z,14.40
2022-10-28T01:36:36.844Z,14.40
2022-10-28T01:39:32.252Z,14.30
2022-10-28T01:42:27.477Z,14.30
2022-10-28T01:45:20.228Z,14.40
2022-10-28T01:48:13.467Z,14.30
2022-10-28T01:51:07.271Z,14.30
2022-10-28T01:53:57.820Z,14.30
2022-10-28T01:56:48.053Z,14.20
2022-10-28T01:59:37.568Z,14.30
2022-10-28T02:02:26.116Z,14.20
2022-10-28T02:05:38.544Z,14.10
2022-10-28T02:08:44.607Z,14.20
2022-10-28T02:11:53.759Z,14.10
2022-10-28T02:15:01.482Z,14.10
2022-10-28T02:17:57.778Z,14.00
2022-10-28T02:20:53.129Z,14.00
2022-10-28T02:23:48.515Z,14.00
2022-10-28T02:26:40.476Z,14.00
2022-10-28T02:29:35.157Z,14.00
2022-10-28T02:32:29.259Z,14.00
2022-10-28T02:35:21.821Z,13.90
2022-10-28T02:38:13.429Z,13.90
2022-10-28T02:41:10.233Z,14.00
2022-10-28T02:44:15.852Z,13.90
2022-10-28T02:47:24.177Z,13.90
2022-10-28T02:50:17.992Z,13.90
2022-10-28T02:53:14.531Z,13.80
2022-10-28T02:56:07.338Z,13.80
2022-10-28T02:58:55.369Z,13.70
2022-10-28T03:01:43.488Z,13.70
2022-10-28T03:04:31.625Z,13.70
2022-10-28T03:07:19.843Z,13.70
2022-10-28T03:10:08.758Z,13.60
2022-10-28T03:12:58.082Z,13.60
2022-10-28T03:15:47.510Z,13.60
2022-10-28T03:18:35.498Z,13.60
2022-10-28T03:21:23.604Z,13.60
2022-10-28T03:24:11.582Z,13.50
2022-10-28T03:26:59.580Z,13.50
2022-10-28T03:29:48.880Z,13.50
2022-10-28T03:32:36.914Z,13.50
2022-10-28T03:35:24.981Z,13.40
2022-10-28T03:38:13.018Z,13.50
2022-10-28T03:41:01.130Z,13.40
2022-10-28T03:43:49.198Z,13.40
2022-10-28T03:46:38.589Z,13.50
2022-10-28T03:49:26.618Z,13.40
2022-10-28T03:52:14.647Z,13.30
2022-10-28T03:55:02.642Z,13.40
2022-10-28T03:57:50.796Z,13.40
2022-10-28T04:00:39.032Z,13.30
2022-10-28T04:03:28.357Z,13.30
2022-10-28T04:06:16.803Z,13.30
2022-10-28T04:09:04.930Z,13.30
2022-10-28T04:11:53.001Z,13.20
2022-10-28T04:14:40.992Z,13.20
2022-10-28T04:17:29.019Z,13.20
2022-10-28T04:20:18.566Z,13.20
2022-10-28T04:23:06.677Z,13.10
2022-10-28T04:25:55.389Z,13.10
2022-10-28T04:28:43.380Z,13.10
2022-10-28T04:31:31.380Z,13.10
2022-10-28T04:34:19.384Z,13.10
2022-10-28T04:37:08.708Z,13.10
2022-10-28T04:39:56.737Z,13.20
2022-10-28T04:42:44.737Z,13.10
2022-10-28T04:45:33.065Z,13.00
2022-10-28T04:48:21.592Z,13.00
2022-10-28T04:51:09.655Z,13.00
2022-10-28T04:53:58.945Z,13.00
2022-10-28T04:56:46.960Z,13.00
2022-10-28T04:59:34.968Z,13.00
2022-10-28T05:02:23.702Z,13.00
2022-10-28T05:05:11.881Z,13.00
2022-10-28T05:08:00.111Z,13.00
2022-10-28T05:10:51.160Z,13.10
2022-10-28T05:13:39.173Z,12.90
2022-10-28T05:16:27.183Z,13.00
2022-10-28T05:19:15.173Z,13.00
2022-10-28T05:22:03.241Z,13.20
2022-10-28T05:24:51.229Z,13.00
2022-10-28T05:27:40.607Z,13.00
2022-10-28T05:30:28.937Z,13.00
2022-10-28T05:33:17.028Z,13.00
2022-10-28T05:36:05.387Z,13.10
2022-10-28T05:38:53.360Z,13.00
2022-10-28T05:41:41.377Z,13.00
2022-10-28T05:44:30.702Z,13.10
2022-10-28T05:47:19.071Z,13.00
2022-10-28T05:50:07.932Z,13.00
2022-10-28T05:52:57.501Z,13.10
2022-10-28T05:55:47.770Z,13.00
2022-10-28T05:58:36.068Z,13.00
2022-10-28T06:01:25.462Z,13.10
2022-10-28T06:04:13.533Z,13.00
2022-10-28T06:07:01.615Z,13.00
2022-10-28T06:09:50.746Z,13.00
2022-10-28T06:12:37.304Z,13.00
2022-10-28T06:15:25.814Z,13.00
2022-10-28T06:18:16.806Z,13.00
2022-10-28T06:21:06.944Z,13.00
2022-10-28T06:23:54.980Z,13.00
2022-10-28T06:26:43.100Z,13.00
2022-10-28T06:29:31.146Z,13.00
2022-10-28T06:32:19.278Z,13.00
2022-10-28T06:35:08.833Z,13.00
2022-10-28T06:37:57.390Z,13.20
2022-10-28T06:40:49.004Z,13.20
2022-10-28T06:43:39.674Z,13.20
2022-10-28T06:46:27.921Z,13.20
2022-10-28T06:49:17.577Z,13.20
2022-10-28T06:52:07.003Z,13.20
2022-10-28T06:54:55.406Z,13.20
2022-10-28T06:57:43.528Z,13.20
2022-10-28T07:00:33.290Z,13.30
2022-10-28T07:03:21.774Z,13.30
2022-10-28T07:06:09.849Z,13.40
2022-10-28T07:08:59.308Z,13.40
2022-10-28T07:11:54.831Z,13.50
2022-10-28T07:14:43.497Z,13.60
2022-10-28T07:17:31.558Z,13.60
2022-10-28T07:20:19.529Z,13.70
2022-10-28T07:23:07.525Z,13.60
2022-10-28T07:25:57.776Z,13.80
2022-10-28T07:28:45.735Z,13.90
2022-10-28T07:31:33.726Z,14.00
2022-10-28T07:34:26.017Z,14.10
2022-10-28T07:37:15.621Z,14.20
2022-10-28T07:40:03.663Z,14.30
2022-10-28T07:42:53.512Z,14.30
2022-10-28T07:45:41.884Z,14.40
2022-10-28T07:48:30.161Z,14.50
2022-10-28T07:51:18.154Z,14.50
2022-10-28T07:54:06.270Z,14.60
2022-10-28T07:56:54.250Z,14.60
2022-10-28T07:59:43.549Z,14.70
2022-10-28T08:02:31.649Z,14.80
2022-10-28T08:05:19.635Z,14.80
2022-10-28T08:08:07.666Z,15.00
2022-10-28T08:10:55.704Z,15.10
2022-10-28T08:13:44.172Z,15.20
2022-10-28T08:16:33.466Z,15.30
2022-10-28T08:19:21.456Z,15.50
2022-10-28T08:22:09.565Z,15.60
2022-10-28T08:24:57.549Z,15.60
2022-10-28T08:27:45.535Z,15.70
2022-10-28T08:30:50.213Z,15.80
2022-10-28T08:33:45.330Z,16.00
2022-10-28T08:36:33.821Z,16.10
2022-10-28T08:39:21.796Z,16.20
2022-10-28T08:42:27.465Z,16.20
2022-10-28T08:45:24.220Z,16.30
2022-10-28T08:48:19.663Z,16.40
2022-10-28T08:51:17.082Z,16.50
2022-10-28T08:54:13.453Z,16.50
2022-10-28T08:57:04.185Z,16.60
2022-10-28T08:59:54.574Z,16.70
2022-10-28T09:02:52.013Z,16.80
2022-10-28T09:05:42.058Z,16.90
2022-10-28T09:08:36.186Z,17.10
2022-10-28T09:11:43.634Z,17.20
2022-10-28T09:14:43.552Z,17.30
2022-10-28T09:17:42.994Z,17.40
2022-10-28T09:20:50.851Z,17.40
2022-10-28T09:23:49.528Z,17.40
2022-10-28T09:26:44.685Z,17.50
2022-10-28T09:29:44.372Z,17.70
2022-10-28T09:32:41.709Z,17.70
2022-10-28T09:35:34.628Z,17.80
2022-10-28T09:38:28.317Z,17.90
2022-10-28T09:41:21.704Z,17.90
2022-10-28T09:44:16.387Z,17.80
2022-10-28T09:47:13.392Z,17.90
2022-10-28T09:50:05.403Z,17.90
2022-10-28T09:53:00.388Z,18.00
2022-10-28T09:55:48.438Z,18.10
2022-10-28T09:58:41.887Z,18.20
2022-10-28T10:01:34.086Z,18.30
2022-10-28T10:04:24.582Z,18.30
2022-10-28T10:07:24.042Z,18.40
2022-10-28T10:10:15.191Z,18.40
2022-10-28T10:13:05.653Z,18.50
2022-10-28T10:15:58.171Z,18.60
2022-10-28T10:18:50.460Z,18.70
2022-10-28T10:21:43.951Z,18.80
2022-10-28T10:24:34.047Z,18.80
2022-10-28T10:27:22.391Z,18.90
2022-10-28T10:30:18.078Z,19.00
2022-10-28T10:33:15.816Z,19.00
2022-10-28T10:36:06.519Z,19.00
2022-10-28T10:38:56.558Z,19.10
2022-10-28T10:41:45.824Z,19.30
2022-10-28T10:44:35.065Z,19.20
2022-10-28T10:47:23.104Z,19.30
2022-10-28T10:50:24.626Z,19.40
2022-10-28T10:53:21.609Z,19.50
2022-10-28T10:56:13.087Z,19.50
2022-10-28T10:59:04.395Z,19.50
2022-10-28T11:01:53.302Z,19.60
2022-10-28T11:04:41.557Z,19.60
2022-10-28T11:07:32.713Z,19.60
2022-10-28T11:10:24.429Z,19.70
2022-10-28T11:13:27.154Z,19.70
2022-10-28T11:16:21.010Z,19.80
2022-10-28T11:19:20.843Z,19.80
2022-10-28T11:22:26.803Z,19.90
2022-10-28T11:25:30.816Z,20.00
2022-10-28T11:28:37.964Z,20.00
2022-10-28T11:31:51.921Z,20.10
2022-10-28T11:35:00.147Z,20.10
2022-10-28T11:38:00.355Z,20.20
2022-10-28T11:41:02.348Z,20.30
2022-10-28T11:43:55.002Z,20.40
2022-10-28T11:46:50.588Z,20.40
2022-10-28T11:50:04.285Z,20.50
2022-10-28T11:53:07.665Z,20.60
2022-10-28T11:56:04.573Z,20.60
2022-10-28T11:59:05.441Z,20.70
2022-10-28T12:02:05.900Z,20.80
2022-10-28T12:05:04.920Z,21.00
2022-10-28T12:08:05.911Z,21.10
2022-10-28T12:11:07.041Z,21.20
2022-10-28T12:14:04.736Z,21.20
2022-10-28T12:17:01.146Z,21.30
2022-10-28T12:19:55.596Z,21.30
2022-10-28T12:22:49.224Z,21.30
2022-10-28T12:25:40.199Z,21.40
2022-10-28T12:28:34.536Z,21.40
2022-10-28T12:31:26.335Z,21.30
2022-10-28T12:34:19.172Z,21.30
2022-10-28T12:37:11.267Z,21.20
2022-10-28T12:40:05.605Z,21.20
2022-10-28T12:42:58.308Z,21.20
2022-10-28T12:45:49.842Z,21.30
2022-10-28T12:48:45.713Z,21.40
2022-10-28T12:51:38.659Z,21.40
2022-10-28T12:54:34.278Z,21.50
2022-10-28T12:57:26.005Z,21.60
2022-10-28T13:00:20.629Z,21.60
2022-10-28T13:03:14.436Z,21.70
2022-10-28T13:06:17.379Z,21.90
2022-10-28T13:09:36.356Z,21.90
2022-10-28T13:12:55.309Z,22.00
2022-10-28T13:15:59.680Z,22.00
2022-10-28T13:19:23.767Z,22.00
2022-10-28T13:22:39.495Z,22.00
2022-10-28T13:25:46.684Z,22.00
2022-10-28T13:28:36.701Z,22.10
2022-10-28T13:31:36.126Z,22.10
2022-10-28T13:34:33.443Z,22.10
2022-10-28T13:37:24.735Z,22.20
2022-10-28T13:40:23.563Z,22.30
2022-10-28T13:43:20.353Z,22.40
2022-10-28T13:46:08.551Z,22.60
2022-10-28T13:49:25.607Z,22.80
2022-10-28T13:52:21.924Z,22.90
2022-10-28T13:55:23.502Z,23.00
2022-10-28T13:58:22.953Z,23.20
2022-10-28T14:02:01.612Z,23.30
2022-10-28T14:05:00.015Z,23.50
2022-10-28T14:07:55.749Z,23.60
2022-10-28T14:11:01.487Z,23.80
2022-10-28T14:13:52.257Z,24.00
2022-10-28T14:16:43.818Z,24.20
2022-10-28T14:19:32.098Z,24.40
2022-10-28T14:22:30.832Z,24.30
2022-10-28T14:25:56.722Z,24.00
2022-10-28T14:28:55.628Z,23.60
2022-10-28T14:31:44.861Z,23.40
2022-10-28T14:34:42.068Z,23.20
2022-10-28T14:38:10.099Z,23.00
2022-10-28T14:41:07.710Z,22.90
2022-10-28T14:44:06.859Z,22.60
2022-10-28T14:47:11.332Z,22.40
2022-10-28T14:50:02.619Z,22.20
2022-10-28T14:52:52.384Z,22.00
2022-10-28T14:55:46.795Z,21.90
2022-10-28T14:58:39.093Z,21.70
2022-10-28T15:01:29.111Z,21.60
2022-10-28T15:04:18.651Z,21.50
2022-10-28T15:07:09.335Z,21.40
2022-10-28T15:09:58.211Z,21.30
2022-10-28T15:12:49.906Z,21.10
2022-10-28T15:15:38.169Z,21.10
2022-10-28T15:18:26.962Z,21.00
2022-10-28T15:21:18.411Z,21.00
2022-10-28T15:24:09.201Z,20.90
2022-10-28T15:26:57.750Z,20.80
2022-10-28T15:29:47.114Z,20.80
2022-10-28T15:32:36.358Z,20.70
2022-10-28T15:35:48.704Z,20.60
2022-10-28T15:38:40.081Z,20.60
2022-10-28T15:41:49.260Z,20.50
2022-10-28T15:44:39.443Z,20.40
2022-10-28T15:47:32.980Z,20.40
2022-10-28T15:50:30.279Z,20.30
2022-10-28T15:53:32.983Z,20.20
2022-10-28T15:56:23.607Z,20.10
2022-10-28T15:59:21.902Z,20.10
2022-10-28T16:05:49.191Z,19.90
2022-10-28T16:08:37.379Z,19.90
2022-10-28T16:11:26.260Z,19.80
2022-10-28T16:14:45.141Z,19.70
2022-10-28T16:17:37.234Z,19.60
2022-10-28T16:20:29.789Z,19.60
2022-10-28T16:23:21.948Z,19.60
2022-10-28T16:26:11.543Z,19.40
2022-10-28T16:28:59.589Z,19.40
2022-10-28T16:31:51.692Z,19.40
2022-10-28T16:34:39.966Z,19.30
2022-10-28T16:37:29.714Z,19.20
2022-10-28T16:40:45.508Z,19.10
2022-10-28T16:43:29.424Z,19.10
2022-10-28T16:46:17.424Z,19.10
2022-10-28T16:49:05.422Z,19.00
2022-10-28T16:51:54.465Z,18.90
2022-10-28T16:54:42.485Z,18.90
2022-10-28T16:57:31.800Z,18.90
2022-10-28T17:00:20.518Z,18.80
2022-10-28T17:03:12.011Z,18.80
2022-10-28T17:06:00.043Z,18.80
2022-10-28T17:09:04.047Z,18.70
2022-10-28T17:11:52.263Z,18.70
2022-10-28T17:14:41.653Z,18.70
2022-10-28T17:17:29.708Z,18.60
2022-10-28T17:20:18.024Z,18.60
2022-10-28T17:23:06.817Z,18.50
2022-10-28T17:25:58.718Z,18.50
2022-10-28T17:28:51.659Z,18.50
2022-10-28T17:31:41.084Z,18.40
2022-10-28T17:34:29.096Z,18.40
2022-10-28T17:37:17.140Z,18.30
2022-10-28T17:40:06.306Z,18.30
2022-10-28T17:42:54.493Z,18.20
2022-10-28T17:45:42.732Z,18.20
2022-10-28T17:48:32.080Z,18.20
2022-10-28T17:51:21.625Z,18.20
2022-10-28T17:54:09.885Z,18.20
2022-10-28T17:56:57.900Z,18.20
2022-10-28T17:59:45.943Z,18.10
2022-10-28T18:02:34.053Z,18.10
2022-10-28T18:05:23.462Z,18.10
2022-10-28T18:08:11.442Z,18.10
2022-10-28T18:11:00.111Z,18.10
2022-10-28T18:13:52.745Z,18.10
2022-10-28T18:16:40.872Z,18.00
2022-10-28T18:19:29.050Z,18.00
2022-10-28T18:22:18.463Z,18.00
2022-10-28T18:25:07.728Z,18.00
2022-10-28T18:27:55.772Z,18.00
2022-10-28T18:30:43.780Z,17.90
2022-10-28T18:33:32.157Z,18.00
2022-10-28T18:36:21.952Z,18.00
2022-10-28T18:39:11.427Z,17.90
2022-10-28T18:41:59.443Z,17.90
2022-10-28T18:44:47.424Z,17.90
2022-10-28T18:47:35.904Z,17.90
2022-10-28T18:50:23.893Z,17.90
2022-10-28T18:53:11.887Z,17.90
2022-10-28T18:56:02.270Z,18.00
2022-10-28T18:58:51.645Z,17.90
2022-10-28T19:01:46.394Z,17.90
2022-10-28T19:04:34.579Z,17.90
2022-10-28T19:07:22.618Z,17.90
2022-10-28T19:10:10.841Z,17.80
2022-10-28T19:13:00.984Z,17.80
2022-10-28T19:15:49.002Z,17.80
2022-10-28T19:18:38.264Z,17.80
2022-10-28T19:21:27.405Z,17.70
2022-10-28T19:24:15.425Z,17.70
2022-10-28T19:27:03.938Z,17.60
2022-10-28T19:29:53.232Z,17.60
2022-10-28T19:32:41.253Z,17.70
2022-10-28T19:35:29.300Z,17.60
2022-10-28T19:38:17.283Z,17.60
2022-10-28T19:41:07.694Z,17.60
2022-10-28T19:43:58.460Z,17.50
2022-10-28T19:46:48.408Z,17.50
2022-10-28T19:49:39.357Z,17.50
2022-10-28T19:52:28.896Z,17.50
2022-10-28T19:55:18.466Z,17.50
2022-10-28T19:58:06.479Z,17.50
2022-10-28T20:00:59.323Z,17.50
2022-10-28T20:03:50.842Z,17.40
2022-10-28T20:06:40.876Z,17.40
2022-10-28T20:09:29.177Z,17.50
2022-10-28T20:12:17.311Z,17.50
2022-10-28T20:15:06.737Z,17.50
2022-10-28T20:17:54.769Z,17.40
2022-10-28T20:20:44.083Z,17.40
2022-10-28T20:23:33.157Z,17.40
2022-10-28T20:26:21.972Z,17.40
2022-10-28T20:29:10.486Z,17.40
2022-10-28T20:31:58.489Z,17.40
2022-10-28T20:34:46.473Z,17.50
2022-10-28T20:37:35.810Z,17.50
2022-10-28T20:40:23.861Z,17.50
2022-10-28T20:43:11.840Z,17.50
2022-10-28T20:46:01.788Z,17.50
2022-10-28T20:48:50.265Z,17.40
2022-10-28T20:51:38.337Z,17.50
2022-10-28T20:54:27.629Z,17.40
2022-10-28T20:57:15.634Z,17.40
2022-10-28T21:00:03.939Z,17.40
2022-10-28T21:02:55.655Z,17.40
2022-10-28T21:05:44.803Z,17.40
2022-10-28T21:08:32.831Z,17.40
2022-10-28T21:11:23.617Z,17.40
2022-10-28T21:14:11.757Z,17.40
2022-10-28T21:17:01.643Z,17.40
2022-10-28T21:19:49.674Z,17.50
2022-10-28T21:22:37.714Z,17.50
2022-10-28T21:25:25.898Z,17.50
2022-10-28T21:28:15.226Z,17.50
2022-10-28T21:31:04.916Z,17.50
2022-10-28T21:33:53.169Z,17.40
2022-10-28T21:36:41.551Z,17.50
2022-10-28T21:39:29.528Z,17.50
2022-10-28T21:42:17.726Z,17.40
2022-10-28T21:45:08.197Z,17.40
2022-10-28T21:47:56.493Z,17.50
2022-10-28T21:50:50.706Z,17.50
2022-10-28T21:53:39.465Z,17.50
2022-10-28T21:56:27.556Z,17.40
2022-10-28T21:59:15.583Z,17.40
2022-10-28T22:02:05.367Z,17.40
2022-10-28T22:04:53.419Z,17.40
2022-10-28T22:07:41.449Z,17.40
2022-10-28T22:10:29.510Z,17.40
2022-10-28T22:13:17.524Z,17.40
2022-10-28T22:16:07.611Z,17.40
2022-10-28T22:18:58.570Z,17.40
2022-10-28T22:21:46.888Z,17.40
2022-10-28T22:24:34.890Z,17.40
2022-10-28T22:27:22.897Z,17.30
2022-10-28T22:30:12.394Z,17.40
2022-10-28T22:33:00.437Z,17.30
2022-10-28T22:35:58.300Z,17.30
2022-10-28T22:38:46.906Z,17.30
2022-10-28T22:41:34.961Z,17.30
2022-10-28T22:44:23.002Z,17.30
2022-10-28T22:47:11.005Z,17.30
2022-10-28T22:49:59.017Z,17.20
2022-10-28T22:52:48.359Z,17.20
2022-10-28T22:55:36.401Z,17.20
2022-10-28T22:58:25.708Z,17.20
2022-10-28T23:01:15.524Z,17.20
2022-10-28T23:04:03.728Z,17.20
2022-10-28T23:06:51.773Z,16.80
2022-10-28T23:09:41.089Z,17.20
2022-10-28T23:12:29.117Z,17.20
2022-10-28T23:15:17.269Z,17.10
2022-10-28T23:18:05.501Z,17.10
2022-10-28T23:20:53.514Z,17.10
2022-10-28T23:23:42.440Z,17.10
2022-10-28T23:26:32.456Z,17.10
2022-10-28T23:29:20.454Z,17.10
2022-10-28T23:32:08.527Z,17.10
2022-10-28T23:34:56.528Z,17.00
2022-10-28T23:37:44.541Z,17.00
2022-10-28T23:40:32.638Z,17.00
2022-10-28T23:43:22.015Z,17.00
2022-10-28T23:46:10.269Z,17.00
2022-10-28T23:48:58.253Z,17.00
2022-10-28T23:51:46.312Z,17.00
2022-10-28T23:54:34.319Z,17.00
2022-10-28T23:57:22.356Z,17.00
